Terminal Aerodrome Forecast
Issued by NWS Louisville, KY

Home | Current Version | Previous Version | Text Only | Print | Product List | Glossary On
Versions: 1 2 3 4 5 6 7 8 9 10 11 12 13 14 15 16 17 18 19 20 21 22 23 24 25 26 27 28
000
FTUS43 KLMK 030500
TAFBWG
TAF
KBWG 030520Z 0306/0406 10007KT P6SM BKN050
     FM030900 13005KT P6SM BKN025
     FM031200 16009KT 3SM BR VCSH BKN008
     FM031700 20013G18KT 5SM -SHRA BKN010
     FM040000 22011KT 2SM -RA BR BKN004=

USA.gov is the U.S. government's official web portal to all federal, state and local government web resources and services.